Flight Track Log - Related Links

Times and Time Zones

All times are in EDT time to prevent confusion due to time zone crossing. See the UCA3596 flight status page for this flight to view local times or setup timezone preferences in your user account.

Time Position Orientation Groundspeed Altitude Reporting Facility
EDT Latitude Longitude Course Direction KTS MPH feet Rate Location/Type
Tue 12:23:00 PM 41.9400 -76.0197 160° South  Level FlightAware Approximate
Tue 12:24:00 PM 41.8834 -75.9914 160° South  Level FlightAware Approximate
Tue 12:25:00 PM 41.8269 -75.9632 160° South  Level FlightAware Approximate
Tue 12:26:00 PM 41.7704 -75.9350 160° South  Level FlightAware Approximate
Tue 12:27:00 PM 41.7139 -75.9069 160° South  Level FlightAware Approximate
Tue 12:28:00 PM 41.6574 -75.8786 159° South  Level FlightAware Approximate
Tue 12:29:00 PM 41.6009 -75.8502 159° South  Level FlightAware Approximate
Tue 12:30:00 PM 41.5445 -75.8219 159° South  Level FlightAware Approximate
Tue 12:31:00 PM 41.4880 -75.7936 159° South  Level FlightAware Approximate
Tue 12:32:00 PM 41.4316 -75.7654 159° South  Level FlightAware Approximate
Tue 12:33:00 PM 41.3751 -75.7373 159° South  Level FlightAware Approximate
Tue 12:33:32 PM 41.1267 -75.6189 162° South 259 298 7,200  Level New York Center
Tue 12:34:00 PM 41.3186 -75.7091 160° South  Level FlightAware Approximate
Tue 12:34:02 PM 41.0919 -75.6056 164° South 265 305 6,800  Level New York Center
Tue 12:35:00 PM 41.2621 -75.6813 162° South  Level FlightAware Approximate
Tue 12:35:01 PM 41.0239 -75.5869 168° South 260 299 6,000  Level New York Center
Tue 12:36:00 PM 41.2048 -75.6562 162° South  Level FlightAware Approximate
Tue 12:36:02 PM 40.9878 -75.4964 118° Southeast 272 313 6,000  Level New York Center
Tue 12:37:00 PM 41.1475 -75.6311 162° South  Level FlightAware Approximate
Tue 12:37:03 PM 40.9644 -75.4067 109° East 264 304 6,000  Level New York Center
Tue 12:38:00 PM 41.0857 -75.6041 162° South  Level FlightAware Approximate
Tue 12:38:09 PM 40.9347 -75.3086 112° Southeast 261 300 6,000  Level New York Center
Tue 12:39:05 PM 40.9108 -75.2300 112° Southeast 261 300 6,000  Level New York Center
Tue 12:40:11 PM 40.8833 -75.1267 109° East 259 298 6,000  Level New York Center
Tue 12:41:04 PM 40.8614 -75.0431 109° East 259 298 6,000  Level New York Center
Tue 12:42:07 PM 40.8356 -74.9536 111° Southeast 259 298 6,000  Level New York Center
Tue 12:43:07 PM 40.7986 -74.8775 123° Southeast 245 282 6,000  Level New York Center
Tue 12:44:07 PM 40.7486 -74.8169 137° Southeast 251 289 6,000  Level New York Center
Tue 12:46:00 PM 40.7607 -74.6610 84° East  Level FlightAware Approximate
Tue 12:53:00 PM 40.6833 -74.1667 102° East  Level FlightAware Approximate
Tue 12:54:00 PM 40.6925 -74.1687 37° Northeast  Level Estimated
Tue 12:55:00 PM 40.6925 -74.1687 102° East  Level Estimated
Tue 12:56:00 PM 40.6925 -74.1687 170° South  Level Estimated
Tue 12:57:00 PM 40.6925 -74.1687 102° East  Level Estimated
Tue 12:58:00 PM 40.6925 -74.1687 170° South  Level Estimated
Tue 12:59:00 PM 40.6925 -74.1687 102° East  Level Estimated
Tue 01:00:00 PM 40.6925 -74.1687 170° South  Level Estimated
Tue 01:01:00 PM 40.6925 -74.1687 102° East  Level Estimated
Tue 01:02:00 PM 40.6925 -74.1687 170° South  Level Estimated
Tue 01:03:00 PM 40.6925 -74.1687 102° East  Level Estimated
Tue 01:04:00 PM 40.6925 -74.1687 170° South  Level Estimated
Tue 01:05:00 PM 40.6925 -74.1687 102° East  Level Estimated
Tue 01:06:00 PM 40.6925 -74.1687 170° South  Level Estimated
Tue 01:07:00 PM 40.6925 -74.1687 102° East  Level Estimated
Tue 01:08:00 PM 40.6925 -74.1687 170° South  Level Estimated
Tue 01:09:00 PM 40.6925 -74.1687 102° East  Level Estimated
Tue 01:10:00 PM 40.6925 -74.1687 170° South  Level Estimated
Tue 01:11:00 PM 40.6925 -74.1687 102° East  Level Estimated
Tue 01:12:00 PM 40.6925 -74.1687 170° South  Level Estimated

Login

Don't have an account? Register now (free) for customized features, flight alerts, and more!